TimeCST,TemperatureF,Dew PointF,Humidity,Sea Level PressureIn,VisibilityMPH,Wind Direction,Wind SpeedMPH,Gust SpeedMPH,PrecipitationIn,Events,Conditions,WindDirDegrees,DateUTC
12:53 AM,30.9,28.9,92,30.30,10.0,Calm,Calm,-,N/A,,Clear,0,2012-12-13 06:53:00
1:53 AM,30.9,28.0,89,30.30,10.0,Calm,Calm,-,N/A,,Clear,0,2012-12-13 07:53:00
2:53 AM,30.0,27.0,88,30.30,10.0,WNW,3.5,-,N/A,,Clear,290,2012-12-13 08:53:00
3:53 AM,30.0,27.0,88,30.30,10.0,Calm,Calm,-,N/A,,Clear,0,2012-12-13 09:53:00
4:53 AM,30.0,27.0,88,30.32,10.0,Calm,Calm,-,N/A,,Clear,0,2012-12-13 10:53:00
5:53 AM,28.9,26.1,89,30.33,10.0,NW,3.5,-,N/A,,Clear,310,2012-12-13 11:53:00
6:53 AM,30.0,26.1,85,30.36,10.0,Calm,Calm,-,N/A,,Clear,0,2012-12-13 12:53:00
7:53 AM,35.1,30.0,82,30.37,10.0,Calm,Calm,-,N/A,,Clear,0,2012-12-13 13:53:00
8:53 AM,41.0,30.0,65,30.38,10.0,Calm,Calm,-,N/A,,Clear,0,2012-12-13 14:53:00
9:53 AM,48.9,33.1,54,30.37,10.0,NNE,4.6,-,N/A,,Clear,20,2012-12-13 15:53:00
10:53 AM,54.0,35.1,49,30.37,10.0,ENE,4.6,-,N/A,,Clear,60,2012-12-13 16:53:00
11:53 AM,57.0,37.0,47,30.34,10.0,Variable,5.8,-,N/A,,Clear,0,2012-12-13 17:53:00
12:53 PM,59.0,37.0,44,30.30,10.0,ENE,6.9,-,N/A,,Clear,70,2012-12-13 18:53:00
1:53 PM,62.1,37.0,39,30.27,10.0,Variable,5.8,-,N/A,,Clear,0,2012-12-13 19:53:00
2:53 PM,62.1,36.0,38,30.27,10.0,Calm,Calm,-,N/A,,Clear,0,2012-12-13 20:53:00
3:53 PM,62.1,36.0,38,30.27,10.0,Calm,Calm,-,N/A,,Clear,0,2012-12-13 21:53:00
7:53 PM,42.1,37.9,85,30.28,10.0,Calm,Calm,-,N/A,,Clear,0,2012-12-14 01:53:00
8:53 PM,39.0,37.0,93,30.31,10.0,Calm,Calm,-,N/A,,Clear,0,2012-12-14 02:53:00
9:53 PM,37.9,35.1,89,30.32,10.0,Calm,Calm,-,N/A,,Clear,0,2012-12-14 03:53:00
10:53 PM,37.0,34.0,89,30.32,10.0,Calm,Calm,-,N/A,,Clear,0,2012-12-14 04:53:00